map of SXI home
SXI - Airport
Location
City:  Sirri Island, Hormozgan, Iran
ICAO:OIBS
IATA:SXI

Details
Type:Airport (Aerodrome, Airfield)
Latitude:2554'32"N (25.908869)
Longitude:5432'22"E (54.539400)
Datum:WGS 1984
Elevation:43 ft (13 m)
Variation:2.30E (WMM2015 magnetic declination)
0.05 annual change
Runways:1
Longest:8345 × 175 ft (2544 × 53.5 m), paved

Time
Time Zone:UTC+3:30 (DST+4:30)
Local Time:

Weather
METAR:OIBS 171500Z 02012KT CAVOK 24/13 Q1020

Related Locations
Nearby:
Farthest:GMR: 11821 mi / 19024 km
Mangareva [Totegegie], Gambier Islands, PF

Find:

   beyond  
but within

Other Information
Maps:
NOTAMs:
Links:
Sources:

  
  • flag of Iran
  

Sectional Chart

Flight Planning
at skyvector.com

Satellite Image

Google Maps Satellite view

 

Copyright © 2004-2018 Karl L. Swartz. All rights reserved.
The Great Circle Mapper name and logo are trademarks of the Great Circle Mapper.
All other trademarks mentioned herein belong to their respective owners.
Please see credits for attibutions and further copyright information.

  Follow gcmap on Facebook Follow gcmap on Twitter Follow gcmap on Google+ GCmap on LinkedIn

hCard Microformat

Geo Microformat